createdAt,value
2023-01-18T00:01:01.252Z,99859.81
2023-01-18T00:03:28.616Z,99846.31
2023-01-18T00:05:55.593Z,99865.81
2023-01-18T00:08:22.533Z,99848.28
2023-01-18T00:10:49.474Z,99868.22
2023-01-18T00:13:16.471Z,99869.56
2023-01-18T00:15:43.480Z,99866.34
2023-01-18T00:18:10.478Z,99862.31
2023-01-18T00:20:37.468Z,99871.81
2023-01-18T00:23:04.436Z,99869.00
2023-01-18T00:25:31.426Z,99864.63
2023-01-18T00:27:58.465Z,99889.44
2023-01-18T00:30:29.133Z,99879.22
2023-01-18T00:32:59.272Z,99878.03
2023-01-18T00:35:26.658Z,99880.63
2023-01-18T00:37:54.484Z,99879.22
2023-01-18T00:40:22.773Z,99841.81
2023-01-18T00:43:08.247Z,99878.81
2023-01-18T00:45:35.319Z,99879.53
2023-01-18T00:48:03.765Z,99882.09
2023-01-18T00:50:30.728Z,99876.97
2023-01-18T00:53:00.358Z,99870.00
2023-01-18T00:55:27.921Z,99864.63
2023-01-18T00:57:54.920Z,99805.69
2023-01-18T01:00:23.747Z,99858.38
2023-01-18T01:02:51.864Z,99820.28
2023-01-18T01:05:41.379Z,99856.69
2023-01-18T01:08:08.583Z,99840.47
2023-01-18T01:10:35.938Z,99833.53
2023-01-18T01:13:21.374Z,99853.13
2023-01-18T01:16:07.154Z,99849.28
2023-01-18T01:18:52.829Z,99856.13
2023-01-18T01:21:38.445Z,99785.31
2023-01-18T01:24:24.104Z,99845.94
2023-01-18T01:26:51.096Z,99839.13
2023-01-18T01:29:18.049Z,99839.88
2023-01-18T01:31:44.970Z,99837.47
2023-01-18T01:34:11.946Z,99850.56
2023-01-18T01:36:38.892Z,99835.09
2023-01-18T01:39:07.259Z,99847.19
2023-01-18T01:41:35.234Z,99794.44
2023-01-18T01:44:25.031Z,99781.09
2023-01-18T01:47:16.531Z,99842.22
2023-01-18T01:49:48.324Z,99830.16
2023-01-18T01:52:25.254Z,99848.28
2023-01-18T01:55:06.931Z,99845.56
2023-01-18T01:57:43.484Z,99836.56
2023-01-18T02:00:20.956Z,99821.28
2023-01-18T02:02:53.471Z,99836.81
2023-01-18T02:05:20.940Z,99832.28
2023-01-18T02:07:49.096Z,99809.50
2023-01-18T02:10:16.574Z,99802.00
2023-01-18T02:12:46.557Z,99829.34
2023-01-18T02:15:13.896Z,99825.75
2023-01-18T02:18:30.316Z,99829.84
2023-01-18T02:21:11.806Z,99840.88
2023-01-18T02:23:50.913Z,99833.97
2023-01-18T02:26:36.377Z,99834.50
2023-01-18T02:29:19.481Z,99839.19
2023-01-18T02:32:08.508Z,99840.75
2023-01-18T02:34:55.686Z,99847.22
2023-01-18T02:37:47.110Z,99831.75
2023-01-18T02:40:19.928Z,99833.66
2023-01-18T02:43:07.371Z,99804.03
2023-01-18T02:45:57.654Z,99815.59
2023-01-18T02:48:30.540Z,99841.69
2023-01-18T02:50:57.530Z,99832.69
2023-01-18T02:53:24.478Z,99814.47
2023-01-18T02:55:56.615Z,99825.19
2023-01-18T02:58:30.802Z,99828.97
2023-01-18T03:01:05.501Z,99823.81
2023-01-18T03:03:32.807Z,99809.34
2023-01-18T03:06:02.174Z,99828.22
2023-01-18T03:08:37.548Z,99769.66
2023-01-18T03:11:24.876Z,99810.81
2023-01-18T03:14:09.571Z,99800.19
2023-01-18T03:17:03.609Z,99849.75
2023-01-18T03:20:03.233Z,99856.03
2023-01-18T03:22:57.994Z,99878.03
2023-01-18T03:25:36.893Z,99866.22
2023-01-18T03:28:25.464Z,99879.97
2023-01-18T03:31:15.211Z,99849.63
2023-01-18T03:33:48.159Z,99868.41
2023-01-18T03:36:19.941Z,99886.75
2023-01-18T03:38:52.928Z,99874.91
2023-01-18T03:41:22.134Z,99883.47
2023-01-18T03:43:52.476Z,99871.16
2023-01-18T03:46:22.206Z,99871.28
2023-01-18T03:48:49.377Z,99882.59
2023-01-18T03:51:23.288Z,99884.47
2023-01-18T03:54:15.656Z,99888.50
2023-01-18T03:56:57.947Z,99890.06
2023-01-18T03:59:30.148Z,99876.03
2023-01-18T04:01:57.220Z,99872.44
2023-01-18T04:04:24.218Z,99884.75
2023-01-18T04:06:51.240Z,99869.78
2023-01-18T04:09:18.170Z,99897.44
2023-01-18T04:11:45.229Z,99892.00
2023-01-18T04:14:12.253Z,99892.75
2023-01-18T04:16:39.241Z,99879.34
2023-01-18T04:19:08.775Z,99887.56
2023-01-18T04:21:35.944Z,99883.66
2023-01-18T04:24:02.951Z,99840.69
2023-01-18T04:26:30.161Z,99821.56
2023-01-18T04:28:57.112Z,99890.72
2023-01-18T04:31:24.136Z,99905.66
2023-01-18T04:33:51.769Z,99900.63
2023-01-18T04:36:20.243Z,99886.41
2023-01-18T04:38:47.306Z,99915.28
2023-01-18T04:41:14.279Z,99911.91
2023-01-18T04:43:41.248Z,99920.19
2023-01-18T04:46:08.251Z,99913.03
2023-01-18T04:48:35.305Z,99918.19
2023-01-18T04:51:02.261Z,99904.91
2023-01-18T04:53:29.206Z,99937.13
2023-01-18T04:55:56.132Z,99906.84
2023-01-18T04:58:23.192Z,99931.75
2023-01-18T05:00:50.202Z,99903.84
2023-01-18T05:03:17.231Z,99918.38
2023-01-18T05:05:44.185Z,99877.88
2023-01-18T05:08:11.860Z,99918.03
2023-01-18T05:10:38.807Z,99929.88
2023-01-18T05:13:05.853Z,99922.75
2023-01-18T05:15:34.965Z,99928.47
2023-01-18T05:18:02.721Z,99935.47
2023-01-18T05:20:29.739Z,99934.38
2023-01-18T05:22:56.932Z,99949.06
2023-01-18T05:25:24.213Z,99942.97
2023-01-18T05:27:51.435Z,99946.31
2023-01-18T05:30:18.466Z,99921.84
2023-01-18T05:32:45.418Z,99964.53
2023-01-18T05:35:12.364Z,99967.69
2023-01-18T05:37:39.310Z,99969.88
2023-01-18T05:40:06.997Z,99961.03
2023-01-18T05:42:33.939Z,99963.38
2023-01-18T05:45:00.950Z,99956.75
2023-01-18T05:47:28.007Z,99967.50
2023-01-18T05:49:57.930Z,99911.03
2023-01-18T05:52:24.911Z,99946.41
2023-01-18T05:54:51.928Z,99949.50
2023-01-18T05:57:18.873Z,99966.44
2023-01-18T05:59:45.873Z,99962.41
2023-01-18T06:02:12.874Z,99892.06
2023-01-18T06:04:39.917Z,99954.00
2023-01-18T06:07:06.959Z,99917.84
2023-01-18T06:09:33.889Z,99970.19
2023-01-18T06:12:00.792Z,99953.00
2023-01-18T06:14:27.762Z,99966.28
2023-01-18T06:16:54.748Z,99950.25
2023-01-18T06:19:21.678Z,99975.91
2023-01-18T06:21:48.623Z,99986.41
2023-01-18T06:24:15.741Z,99978.44
2023-01-18T06:26:42.709Z,99972.38
2023-01-18T06:29:09.703Z,99982.59
2023-01-18T06:31:36.723Z,99987.00
2023-01-18T06:34:09.405Z,100006.66
2023-01-18T06:36:37.572Z,100000.75
2023-01-18T06:39:05.166Z,100000.19
2023-01-18T06:41:32.199Z,99995.97
2023-01-18T06:43:59.168Z,100009.09
2023-01-18T06:46:26.192Z,99992.91
2023-01-18T06:48:53.148Z,100012.09
2023-01-18T06:51:20.501Z,100006.91
2023-01-18T06:53:48.113Z,100009.09
2023-01-18T06:56:15.138Z,100014.94
2023-01-18T06:58:42.848Z,100021.28
2023-01-18T07:01:09.950Z,100003.22
2023-01-18T07:03:37.168Z,100018.28
2023-01-18T07:06:05.964Z,100017.75
2023-01-18T07:08:33.264Z,100012.81
2023-01-18T07:11:06.117Z,100000.41
2023-01-18T07:13:33.171Z,99948.34
2023-01-18T07:16:02.103Z,99994.66
2023-01-18T07:18:30.643Z,99957.50
2023-01-18T07:21:07.216Z,100008.94
2023-01-18T07:23:36.667Z,100024.78
2023-01-18T07:26:05.635Z,100027.09
2023-01-18T07:28:33.960Z,100031.13
2023-01-18T07:31:01.601Z,100004.97
2023-01-18T07:33:29.920Z,100028.56
2023-01-18T07:35:58.395Z,100049.09
2023-01-18T07:38:26.057Z,100054.75
2023-01-18T07:41:05.788Z,100036.00
2023-01-18T07:43:33.509Z,100051.03
2023-01-18T07:46:01.685Z,100038.34
2023-01-18T07:48:28.797Z,100049.63
2023-01-18T07:50:57.898Z,100046.63
2023-01-18T07:53:26.988Z,100034.72
2023-01-18T07:55:55.077Z,100038.09
2023-01-18T07:58:22.089Z,100039.66
2023-01-18T08:00:49.080Z,100045.22
2023-01-18T08:03:18.183Z,100036.75
2023-01-18T08:05:47.356Z,100031.91
2023-01-18T08:08:16.313Z,100035.63
2023-01-18T08:10:43.729Z,100012.88
2023-01-18T08:13:11.369Z,100017.47
2023-01-18T08:15:39.443Z,100018.69
2023-01-18T08:18:08.236Z,99998.34
2023-01-18T08:20:35.513Z,100016.47
2023-01-18T08:23:03.797Z,100015.06
2023-01-18T08:25:33.536Z,100008.88
2023-01-18T08:28:02.660Z,100036.81
2023-01-18T08:30:33.568Z,100023.50
2023-01-18T08:33:01.897Z,100035.66
2023-01-18T08:35:32.056Z,100033.97
2023-01-18T08:38:00.480Z,100044.66
2023-01-18T08:40:28.630Z,100032.56
2023-01-18T08:43:00.924Z,100050.28
2023-01-18T08:45:29.357Z,100039.38
2023-01-18T08:47:58.596Z,100051.00
2023-01-18T08:50:25.631Z,100016.66
2023-01-18T08:52:53.802Z,100018.88
2023-01-18T08:55:22.411Z,100041.53
2023-01-18T08:57:50.221Z,100012.13
2023-01-18T09:00:17.957Z,100040.78
2023-01-18T09:02:45.153Z,100049.94
2023-01-18T09:05:12.229Z,100026.84
2023-01-18T09:07:39.183Z,100049.63
2023-01-18T09:10:09.115Z,100042.53
2023-01-18T09:12:36.070Z,100051.97
2023-01-18T09:15:03.231Z,100029.41
2023-01-18T09:17:31.443Z,100024.75
2023-01-18T09:19:59.413Z,100052.75
2023-01-18T09:22:26.416Z,100055.09
2023-01-18T09:24:53.396Z,100056.53
2023-01-18T09:27:20.418Z,100041.00
2023-01-18T09:29:52.302Z,100068.09
2023-01-18T09:32:20.162Z,100073.09
2023-01-18T09:34:50.720Z,100068.09
2023-01-18T09:37:19.223Z,100052.06
2023-01-18T09:39:51.904Z,100064.56
2023-01-18T09:42:25.481Z,100042.22
2023-01-18T09:44:56.724Z,100037.59
2023-01-18T09:47:39.426Z,100061.00
2023-01-18T09:50:17.865Z,100066.00
2023-01-18T09:52:47.746Z,100065.03
2023-01-18T09:55:33.299Z,100068.41
2023-01-18T09:58:20.027Z,100060.34
2023-01-18T10:00:49.600Z,100034.50
2023-01-18T10:03:22.256Z,100052.81
2023-01-18T10:06:09.082Z,100065.72
2023-01-18T10:09:07.102Z,100069.91
2023-01-18T10:11:47.371Z,100077.50
2023-01-18T10:14:38.920Z,100083.66
2023-01-18T10:17:14.186Z,100088.88
2023-01-18T10:19:41.606Z,100088.88
2023-01-18T10:22:19.534Z,100084.72
2023-01-18T10:25:16.146Z,100085.53
2023-01-18T10:28:25.330Z,100072.53
2023-01-18T10:31:44.295Z,100076.41
2023-01-18T10:34:18.721Z,100069.78
2023-01-18T10:36:54.109Z,100068.91
2023-01-18T10:39:36.094Z,100070.09
2023-01-18T10:42:10.580Z,100009.41
2023-01-18T10:44:37.607Z,100079.84
2023-01-18T10:47:04.626Z,100077.44
2023-01-18T10:49:42.884Z,100069.84
2023-01-18T10:52:29.552Z,100060.50
2023-01-18T10:55:01.825Z,100034.47
2023-01-18T10:57:48.770Z,100061.56
2023-01-18T11:00:21.740Z,100058.19
2023-01-18T11:02:53.333Z,100051.59
2023-01-18T11:05:38.204Z,100065.00
2023-01-18T11:08:22.969Z,100069.97
2023-01-18T11:10:59.406Z,99996.97
2023-01-18T11:13:42.514Z,100065.16
2023-01-18T11:16:23.525Z,100054.59
2023-01-18T11:19:00.061Z,100053.56
2023-01-18T11:21:41.181Z,99995.47
2023-01-18T11:24:22.241Z,100075.63
2023-01-18T11:27:06.115Z,100071.78
2023-01-18T11:29:39.814Z,100047.41
2023-01-18T11:32:24.077Z,100044.66
2023-01-18T11:34:56.590Z,100058.63
2023-01-18T11:37:36.549Z,100039.78
2023-01-18T11:40:28.037Z,100059.94
2023-01-18T11:43:03.859Z,100048.69
2023-01-18T11:45:40.546Z,99973.47
2023-01-18T11:48:17.367Z,100059.28
2023-01-18T11:50:53.744Z,100031.31
2023-01-18T11:53:43.761Z,100050.38
2023-01-18T11:56:20.752Z,100059.09
2023-01-18T11:58:49.663Z,100057.56
2023-01-18T12:01:25.457Z,100058.91
2023-01-18T12:03:56.774Z,100065.63
2023-01-18T12:06:46.567Z,100052.66
2023-01-18T12:09:59.997Z,100054.75
2023-01-18T12:12:42.308Z,100052.00
2023-01-18T12:15:29.310Z,100050.50
2023-01-18T12:18:13.901Z,100044.44
2023-01-18T12:20:59.092Z,99972.78
2023-01-18T12:23:53.144Z,100049.97
2023-01-18T12:26:20.165Z,100044.41
2023-01-18T12:29:27.547Z,100049.69
2023-01-18T12:32:13.291Z,100053.06
2023-01-18T12:35:22.627Z,100054.75
2023-01-18T12:37:53.232Z,100061.00
2023-01-18T12:40:39.017Z,100062.75
2023-01-18T12:43:15.194Z,100082.69
2023-01-18T12:45:51.007Z,100083.78
2023-01-18T12:48:36.141Z,100080.97
2023-01-18T12:51:17.554Z,100087.84
2023-01-18T12:53:50.172Z,100082.13
2023-01-18T12:56:40.481Z,100085.91
2023-01-18T12:59:28.952Z,100078.00
2023-01-18T13:02:11.158Z,100010.44
2023-01-18T13:04:53.804Z,100069.13
2023-01-18T13:07:29.008Z,100070.38
2023-01-18T13:09:57.023Z,100050.34
2023-01-18T13:12:25.739Z,100070.78
2023-01-18T13:15:17.061Z,100059.28
2023-01-18T13:17:56.451Z,100072.34
2023-01-18T13:20:37.366Z,100049.03
2023-01-18T13:23:31.018Z,100055.50
2023-01-18T13:26:20.038Z,100059.97
2023-01-18T13:28:47.557Z,100049.88
2023-01-18T13:31:14.754Z,100068.78
2023-01-18T13:33:45.762Z,100056.63
2023-01-18T13:36:17.400Z,100047.34
2023-01-18T13:39:10.681Z,100072.34
2023-01-18T13:41:37.632Z,100056.63
2023-01-18T13:44:25.553Z,100060.31
2023-01-18T13:46:57.178Z,100049.44
2023-01-18T13:49:37.939Z,100056.13
2023-01-18T13:52:35.687Z,100049.97
2023-01-18T13:55:23.209Z,100044.72
2023-01-18T13:57:55.541Z,100032.19
2023-01-18T14:00:24.839Z,100025.47
2023-01-18T14:02:56.876Z,100033.56
2023-01-18T14:05:27.928Z,100040.03
2023-01-18T14:08:01.060Z,100048.75
2023-01-18T14:10:46.808Z,100034.69
2023-01-18T14:13:18.347Z,100028.91
2023-01-18T14:15:54.928Z,100014.28
2023-01-18T14:18:25.442Z,100031.47
2023-01-18T14:21:11.081Z,100051.13
2023-01-18T14:23:40.982Z,100045.13
2023-01-18T14:26:15.343Z,100051.78
2023-01-18T14:28:54.535Z,100050.06
2023-01-18T14:31:29.218Z,100039.63
2023-01-18T14:33:56.448Z,100035.91
2023-01-18T14:36:26.615Z,100017.19
2023-01-18T14:39:13.834Z,100024.53
2023-01-18T14:41:44.149Z,100010.13
2023-01-18T14:44:20.747Z,100034.63
2023-01-18T14:46:56.238Z,100027.97
2023-01-18T14:49:31.292Z,100009.84
2023-01-18T14:51:59.555Z,100023.56
2023-01-18T14:54:26.748Z,100014.56
2023-01-18T14:57:05.722Z,99999.97
2023-01-18T14:59:33.937Z,100019.88
2023-01-18T15:02:16.049Z,100024.78
2023-01-18T15:04:47.479Z,100017.13
2023-01-18T15:07:33.966Z,100012.28
2023-01-18T15:10:01.042Z,100024.47
2023-01-18T15:12:31.788Z,100024.78
2023-01-18T15:15:17.192Z,100036.22
2023-01-18T15:17:44.256Z,100016.84
2023-01-18T15:20:15.016Z,99966.75
2023-01-18T15:22:43.133Z,100006.91
2023-01-18T15:25:26.354Z,100034.84
2023-01-18T15:27:54.424Z,100019.53
2023-01-18T15:30:24.740Z,100023.25
2023-01-18T15:32:57.936Z,100033.88
2023-01-18T15:35:25.873Z,100033.53
2023-01-18T15:37:53.010Z,100024.53
2023-01-18T15:40:19.984Z,100038.31
2023-01-18T15:42:54.127Z,100028.88
2023-01-18T15:45:24.409Z,100040.66
2023-01-18T15:47:57.422Z,100046.81
2023-01-18T15:50:31.093Z,100042.41
2023-01-18T15:53:06.959Z,100049.63
2023-01-18T15:55:38.703Z,100009.91
2023-01-18T15:58:14.608Z,100021.19
2023-01-18T16:00:53.945Z,100002.53
2023-01-18T16:03:36.631Z,100043.19
2023-01-18T16:06:15.265Z,100047.19
2023-01-18T16:09:12.436Z,100028.59
2023-01-18T16:11:53.223Z,100028.22
2023-01-18T16:14:29.287Z,100025.31
2023-01-18T16:17:04.855Z,100030.09
2023-01-18T16:19:35.206Z,100034.53
2023-01-18T16:22:05.022Z,100003.34
2023-01-18T16:24:46.937Z,100026.19
2023-01-18T16:27:19.094Z,100028.47
2023-01-18T16:29:59.746Z,100001.53
2023-01-18T16:32:29.781Z,100026.09
2023-01-18T16:35:00.422Z,100042.94
2023-01-18T16:37:27.906Z,100041.97
2023-01-18T16:39:55.473Z,100040.81
2023-01-18T16:42:29.612Z,100038.44
2023-01-18T16:45:00.365Z,100031.66
2023-01-18T16:47:27.349Z,100045.94
2023-01-18T16:49:54.304Z,100046.03
2023-01-18T16:52:21.680Z,100052.97
2023-01-18T16:54:48.683Z,100051.56
2023-01-18T16:57:22.042Z,100058.06
2023-01-18T16:59:50.153Z,100017.41
2023-01-18T17:02:17.291Z,100045.50
2023-01-18T17:04:45.555Z,100052.53
2023-01-18T17:07:12.940Z,100037.84
2023-01-18T17:09:48.405Z,100051.31
2023-01-18T17:12:16.334Z,100060.38
2023-01-18T17:14:43.293Z,100038.00
2023-01-18T17:17:10.982Z,100038.50
2023-01-18T17:19:38.290Z,100038.72
2023-01-18T17:22:06.576Z,100004.44
2023-01-18T17:24:34.044Z,100044.06
2023-01-18T17:27:01.451Z,100046.09
2023-01-18T17:29:28.878Z,100026.53
2023-01-18T17:31:55.888Z,100043.19
2023-01-18T17:34:28.448Z,100039.41
2023-01-18T17:36:59.763Z,100033.78
2023-01-18T17:39:42.647Z,100043.81
2023-01-18T17:42:22.395Z,100047.16
2023-01-18T17:45:02.550Z,100049.28
2023-01-18T17:47:35.203Z,100029.78
2023-01-18T17:50:08.893Z,100025.56
2023-01-18T17:52:37.283Z,100043.25
2023-01-18T17:55:05.231Z,100046.53
2023-01-18T17:57:32.413Z,100046.09
2023-01-18T17:59:59.447Z,100051.75
2023-01-18T18:02:26.662Z,100007.47
2023-01-18T18:04:53.686Z,100036.38
2023-01-18T18:07:20.790Z,100036.47
2023-01-18T18:09:47.753Z,100032.16
2023-01-18T18:12:14.753Z,100035.50
2023-01-18T18:14:41.746Z,100039.59
2023-01-18T18:17:09.675Z,100030.75
2023-01-18T18:19:36.661Z,100031.09
2023-01-18T18:22:03.712Z,100019.75
2023-01-18T18:24:30.752Z,100037.72
2023-01-18T18:26:58.210Z,100033.78
2023-01-18T18:29:25.222Z,100021.94
2023-01-18T18:31:52.811Z,99995.97
2023-01-18T18:34:19.901Z,100002.50
2023-01-18T18:36:46.927Z,99999.31
2023-01-18T18:39:13.980Z,99979.69
2023-01-18T18:41:43.269Z,99979.94
2023-01-18T18:44:10.873Z,99986.91
2023-01-18T18:46:39.038Z,99982.31
2023-01-18T18:49:07.018Z,99974.94
2023-01-18T18:51:37.090Z,99989.81
2023-01-18T18:54:05.138Z,99981.63
2023-01-18T18:56:32.520Z,99996.34
2023-01-18T18:58:59.503Z,99990.19
2023-01-18T19:01:29.564Z,99991.16
2023-01-18T19:03:57.771Z,99983.75
2023-01-18T19:06:25.845Z,99989.75
2023-01-18T19:08:53.453Z,99953.44
2023-01-18T19:11:20.946Z,99984.28
2023-01-18T19:13:49.326Z,99948.00
2023-01-18T19:16:17.390Z,99959.09
2023-01-18T19:18:44.430Z,99963.66
2023-01-18T19:21:11.400Z,99978.72
2023-01-18T19:23:38.501Z,99970.44
2023-01-18T19:26:05.696Z,99977.78
2023-01-18T19:28:32.834Z,99991.75
2023-01-18T19:31:07.628Z,99976.88
2023-01-18T19:33:34.814Z,99956.34
2023-01-18T19:36:14.065Z,99981.44
2023-01-18T19:38:46.527Z,99974.06
2023-01-18T19:41:15.184Z,99977.69
2023-01-18T19:43:43.034Z,99965.41
2023-01-18T19:46:12.636Z,99946.66
2023-01-18T19:48:40.408Z,99973.69
2023-01-18T19:51:20.760Z,99968.66
2023-01-18T19:53:49.058Z,99965.06
2023-01-18T19:56:16.112Z,99906.25
2023-01-18T19:58:43.079Z,99934.94
2023-01-18T20:01:14.832Z,99915.91
2023-01-18T20:03:48.132Z,99925.41
2023-01-18T20:06:18.035Z,99941.50
2023-01-18T20:08:45.601Z,99923.75
2023-01-18T20:11:14.826Z,99941.03
2023-01-18T20:13:47.269Z,99923.22
2023-01-18T20:16:15.621Z,99951.72
2023-01-18T20:18:42.754Z,99947.09
2023-01-18T20:21:14.208Z,99911.63
2023-01-18T20:23:43.830Z,99930.31
2023-01-18T20:26:19.970Z,99924.94
2023-01-18T20:28:56.062Z,99916.13
2023-01-18T20:31:23.381Z,99900.59
2023-01-18T20:33:50.949Z,99897.16
2023-01-18T20:36:18.349Z,99910.25
2023-01-18T20:38:45.280Z,99923.59
2023-01-18T20:41:12.387Z,99918.56
2023-01-18T20:43:40.336Z,99895.78
2023-01-18T20:46:10.417Z,99913.59
2023-01-18T20:48:38.896Z,99927.13
2023-01-18T20:51:07.660Z,99921.19
2023-01-18T20:53:34.818Z,99921.59
2023-01-18T20:56:11.765Z,99917.56
2023-01-18T20:58:41.400Z,99926.78
2023-01-18T21:01:15.786Z,99919.81
2023-01-18T21:03:51.703Z,99911.28
2023-01-18T21:06:18.888Z,99880.88
2023-01-18T21:08:45.900Z,99876.66
2023-01-18T21:11:17.694Z,99902.06
2023-01-18T21:13:44.664Z,99890.81
2023-01-18T21:16:11.694Z,99886.69
2023-01-18T21:18:39.515Z,99905.50
2023-01-18T21:21:09.712Z,99872.44
2023-01-18T21:23:39.654Z,99859.38
2023-01-18T21:26:09.569Z,99900.47
2023-01-18T21:28:36.948Z,99867.66
2023-01-18T21:31:05.202Z,99873.91
2023-01-18T21:33:32.629Z,99870.09
2023-01-18T21:36:13.046Z,99831.81
2023-01-18T21:38:40.143Z,99878.91
2023-01-18T21:41:26.029Z,99874.44
2023-01-18T21:44:12.708Z,99886.41
2023-01-18T21:46:48.568Z,99859.91
2023-01-18T21:49:51.978Z,99880.56
2023-01-18T21:52:40.139Z,99868.47
2023-01-18T21:55:07.562Z,99874.03
2023-01-18T21:57:36.410Z,99860.34
2023-01-18T22:00:05.027Z,99856.75
2023-01-18T22:02:36.004Z,99861.25
2023-01-18T22:05:04.158Z,99873.88
2023-01-18T22:07:34.254Z,99857.41
2023-01-18T22:10:06.599Z,99864.69
2023-01-18T22:12:36.163Z,99853.50
2023-01-18T22:15:05.012Z,99850.63
2023-01-18T22:17:32.233Z,99850.69
2023-01-18T22:19:59.928Z,99869.41
2023-01-18T22:22:27.047Z,99851.56
2023-01-18T22:24:54.246Z,99852.53
2023-01-18T22:27:21.174Z,99829.19
2023-01-18T22:29:48.237Z,99831.19
2023-01-18T22:32:15.314Z,99829.38
2023-01-18T22:34:42.271Z,99845.09
2023-01-18T22:37:09.220Z,99847.44
2023-01-18T22:39:36.183Z,99867.78
2023-01-18T22:42:03.230Z,99817.47
2023-01-18T22:44:30.407Z,99827.28
2023-01-18T22:46:57.354Z,99839.66
2023-01-18T22:49:24.376Z,99838.16
2023-01-18T22:51:51.319Z,99844.47
2023-01-18T22:54:22.625Z,99855.59
2023-01-18T22:56:49.819Z,99821.94
2023-01-18T22:59:16.910Z,99849.13
2023-01-18T23:01:43.910Z,99769.34
2023-01-18T23:04:11.395Z,99849.81
2023-01-18T23:06:48.961Z,99848.31
2023-01-18T23:09:17.617Z,99843.44
2023-01-18T23:11:45.135Z,99849.28
2023-01-18T23:14:30.951Z,99799.00
2023-01-18T23:17:16.509Z,99816.75
2023-01-18T23:19:43.567Z,99837.03
2023-01-18T23:22:11.310Z,99832.97
2023-01-18T23:24:39.288Z,99824.31
2023-01-18T23:27:08.221Z,99818.19
2023-01-18T23:29:35.241Z,99826.66
2023-01-18T23:32:02.272Z,99822.34
2023-01-18T23:34:29.425Z,99803.97
2023-01-18T23:36:56.403Z,99807.94
2023-01-18T23:39:42.041Z,99808.94
2023-01-18T23:42:27.753Z,99791.50
2023-01-18T23:45:13.585Z,99797.16
2023-01-18T23:47:59.532Z,99805.72
2023-01-18T23:50:45.490Z,99785.75
2023-01-18T23:53:32.046Z,99787.16
2023-01-18T23:56:00.082Z,99761.56
2023-01-18T23:58:27.785Z,99784.56
